• Join FlightAware (Why Join?)
  • Login
  • US Flag 
09:03AM EDT


 

Airport Tracker/Info


-or-


 

Live Flight TrackerFlight Track Log ✈ UAL3773 ✈ 10-Apr-2013 ✈ KCLT - KIAD

Flight Track Log - Related Links

Times and Time Zones

All times are in EDT time to prevent confusion due to time zone crossing. See the UAL3773 flight status page for this flight to view local times or setup timezone preferences in your user account.

Time Position Orientation Groundspeed Altitude Reporting Facility
EDT Latitude Longitude Course Direction KTS MPH feet Rate Location/Type
10:27AM 35.1908 -80.9331 156° South 165 190 1,700  Level Atlanta Center
10:28AM 35.1208 -80.8950 156° South 264 304 4,300 2,400 Climbing Atlanta Center
10:30AM 35.1489 -80.7669 75° East 291 335 8,600 2,760 Climbing Atlanta Center
10:31AM 35.1861 -80.6767 63° Northeast 298 343 11,200 2,580 Climbing Atlanta Center
10:32AM 35.2294 -80.5808 61° Northeast 310 357 13,800 2,520 Climbing Atlanta Center
10:33AM 35.2806 -80.4769 59° Northeast 316 364 16,300 2,400 Climbing Atlanta Center
10:34AM 35.3297 -80.3731 60° Northeast 335 386 18,600 2,100 Climbing Atlanta Center
10:35AM 35.3786 -80.2664 61° Northeast 346 398 20,500 1,680 Climbing Atlanta Center
10:37AM 35.4506 -80.0669 66° East 391 450 23,100 1,920 Climbing Washington Center
10:38AM 35.4817 -79.9564 71° East 391 450 25,600 1,920 Climbing Washington Center
10:39AM 35.5136 -79.8253 73° East 391 450 27,000 660 Climbing Washington Center
10:40AM 35.5472 -79.6969 72° East 391 450 27,000  Level Washington Center
10:41AM 35.5833 -79.5533 73° East 398 458 27,000  Level Washington Center
10:42AM 35.5936 -79.4311 84° East 398 458 27,000  Level Washington Center
10:43AM 35.6061 -79.2989 83° East 392 451 27,000  Level Washington Center
10:44AM 35.6208 -79.1642 82° East 392 451 27,000  Level Washington Center
10:45AM 35.6353 -79.0269 83° East 392 451 27,000  Level Washington Center
10:46AM 35.7108 -78.9406 43° Northeast 367 422 27,000  Level Washington Center
10:47AM 35.8061 -78.8831 26° Northeast 348 400 27,000  Level Washington Center
10:48AM 35.9058 -78.8231 26° Northeast 368 423 27,000  Level Washington Center
10:49AM 36.0078 -78.7631 25° Northeast 373 429 27,000  Level Washington Center
10:50AM 36.1008 -78.7078 26° Northeast 373 429 27,000  Level Washington Center
10:51AM 36.1964 -78.6497 26° Northeast 373 429 27,000  Level Washington Center
10:52AM 36.2958 -78.5892 26° Northeast 378 435 27,000  Level Washington Center
10:53AM 36.3914 -78.5308 26° Northeast 378 435 27,000  Level Washington Center
10:54AM 36.4844 -78.4697 28° Northeast 378 435 27,000  Level Washington Center
10:55AM 36.5753 -78.4214 23° Northeast 371 427 27,000  Level Washington Center
10:56AM 36.6686 -78.3628 27° Northeast 366 421 27,000 -660 Level Washington Center
10:57AM 36.7639 -78.3014 27° Northeast 371 427 25,700 -1,500 Descending Washington Center
10:58AM 36.8653 -78.2425 25° Northeast 376 433 24,000 -1,620 Descending Washington Center
10:59AM 36.9542 -78.1858 27° Northeast 386 444 22,500 -1,020 Descending Washington Center
11:00AM 37.0536 -78.1267 25° Northeast 375 432 22,000 -300 Descending Washington Center
11:01AM 37.1422 -78.0722 26° Northeast 362 417 22,000  Level Washington Center
11:02AM 37.2353 -78.0128 27° Northeast 362 417 22,000  Level Washington Center
11:03AM 37.3303 -77.9556 26° Northeast 362 417 22,000  Level Washington Center
11:04AM 37.4253 -77.8931 28° Northeast 375 432 22,000 -600 Level Washington Center
11:05AM 37.5206 -77.8306 27° Northeast 375 432 20,800 -1,200 Descending Washington Center
11:06AM 37.6089 -77.7781 25° Northeast 369 425 19,700 -1,440 Descending Washington Center
11:07AM 37.6911 -77.7333 23° Northeast 338 389 18,000 -1,740 Descending Washington Center
11:08AM 37.7711 -77.6856 25° Northeast 323 372 16,300 -1,800 Descending Washington Center
11:09AM 37.8514 -77.6406 24° Northeast 316 364 14,400 -1,920 Descending Washington Center
11:10AM 37.9833 -77.5667 24° Northeast 322 371 11,400 -1,680 Descending Potomac TRACON
11:11AM 38.0156 -77.5447 28° Northeast 316 364 11,100 -300 Descending Washington Center
11:12AM 38.0936 -77.4967 26° Northeast 316 364 11,000 -240 Descending Washington Center
11:13AM 38.1650 -77.4508 27° Northeast 316 364 10,700 -600 Descending Washington Center
11:14AM 38.2492 -77.4003 25° Northeast 311 358 9,900 -900 Descending Washington Center
11:15AM 38.3208 -77.3622 23° Northeast 283 326 8,900 -1,140 Descending Washington Center
11:16AM 38.3875 -77.3558 North 268 308 7,700 -1,200 Descending Washington Center
11:17AM 38.4625 -77.3603 357° North 263 303 6,500 -1,200 Descending Washington Center
11:18AM 38.5289 -77.3806 347° North 263 303 5,300 -780 Descending Washington Center
11:19AM 38.5636 -77.4317 311° West 215 247 5,000 -480 Descending Washington Center
11:20AM 38.6203 -77.4119 15° North 187 215 4,400 -720 Descending Washington Center
11:20AM 38.6500 -77.4000 17° North 214 246 4,000 -300 Descending Potomac TRACON
11:21AM 38.7167 -77.3833 11° North 216 249 4,000  Level Potomac TRACON
11:22AM 38.7667 -77.3667 15° North 223 257 4,000  Level Potomac TRACON
11:23AM 38.8333 -77.3500 11° North 210 242 4,000  Level Potomac TRACON
11:24AM 38.9000 -77.3500 360° North 216 249 4,000  Level Potomac TRACON
11:25AM 38.9500 -77.3500 360° North 216 249 4,000 -240 Level Potomac TRACON
11:26AM 39.0000 -77.3500 360° North 219 252 3,600 -540 Descending Potomac TRACON
11:27AM 39.0667 -77.3500 360° North 193 222 3,000 -300 Descending Potomac TRACON
11:28AM 39.1000 -77.3667 339° North 188 216 3,000  Level Potomac TRACON
11:29AM 39.1000 -77.4167 270° West 173 199 3,000 -360 Level Potomac TRACON
11:30AM 39.0500 -77.4333 195° South 207 238 2,300 -720 Descending Potomac TRACON